Lula, MS (38644)

9:00 PM CDT on March 27, 2015 (GMT -0500)
Fletcher | | Change Station
CLOSE
Current Station
Airport
Location: Clarksdale Fletcher Field Air,
Elevation: 174 ft
Nearby Weather Stations
Active Advisory: Flood Advisory

Elev 174 ft 34.30 °N, 90.51 °W | Updated 25 minutes ago

Clear
Clear
45 °F
Feels Like 43 °F
N
4
Wind Variable Wind from NNE

Today
High -- | Low -- °F
--% Chance of Precip.
Yesterday
High -- | Low -- °F
Precip. -- in
6:56 AM 7:18 PM
First Quarter, 58% visible
Pressure 30.17 in
Visibility -9999.0 miles
Clouds Clear
Windchill 43 °F
Dew Point 39 °F
Humidity 81%
Rainfall 0.03 in
Snow Depth Not available.
UV 0 out of 12
Pollen 8.70 out of 12
Air Quality Not available.
Flu Activity Not available.
METAR KCKM 280135Z AUTO 03003KT CLR 07/04 A3017 RMK AO1

More Conditions Fewer Conditions

Pressure 30.17 in
Visibility -9999.0 miles
Clouds Clear
Windchill 43 °F
Dew Point 39 °F
Humidity 81%
Rainfall 0.03 in
Snow Depth Not available.
UV 0 out of 12
Pollen 8.70 out of 12
Air Quality Not available.
Flu Activity Not available.
METAR KCKM 280135Z AUTO 03003KT CLR 07/04 A3017 RMK AO1

More Conditions Fewer Conditions

10-Day Weather Forecast

Almanac

Astronomy

Mar. 27, 2015 Rise Set
Actual Time
Civil Twilight
Nautical Twilight
Astronomical Twilight
Moon
Length of Visible Light
Length of Day
Tomorrow will be .
, % of the Moon is Illuminated

Today's Extremes

State Highs State Lows

Community

WunderPhotos

Upload Photos

1,808,911 photos uploaded!

WunderBlogs® & News

Nearby

Air Quality

  Air Quality AQ Index Pollutant
Not available.

Snow Depth

Station Depth Elevation

Earthquake Activity

City Distance Mag. Time & Date
Minimum magnitude displayed is 2.5.

Coastal Water Temperatures

Place Temperature

Stations

Nearby Weather Stations

Station Location Temp. Windchill Dew Point Humidity Wind Precip. Elev Updated Type
                   
Flood Advisory
Statement as of 9:00 PM CDT on March 27, 2015

The Flood Advisory continues for
the Mississippi River at Helena
* until Saturday March 28.
* At 08 PM Friday the stage was 40.4 feet.
* Flood stage is 44.0 feet.
* Forecast... the river will rise to near 40.3 feet Saturday March 28.
* At 40.0 feet... in Mississippi, homes on the northeast side of
DeSoto Lake are flooding.


Lat... Lon 3455 9070 3455 9059 3450 9051 3412 9066
      3413 9107